Terminal Aerodrome Forecast
Issued by NWS Grand Forks, ND

Home | Current Version | Previous Version | Graphics & Text | Print | Product List | Glossary On
Versions: 1 2 3 4 5 6 7 8 9 10 11 12 13 14 15 16
000
FTUS43 KFGF 231120
TAFFAR
TAF
KFAR 231120Z 2312/2412 01008KT P6SM BKN035
      TEMPO 2312/2314 SCT035=

USA.gov is the U.S. government's official web portal to all federal, state and local government web resources and services.